Time;durP1;ratioP1;P1;durP2;ratioP2;P2;SDS_P1;SDS_P2;PMS_P1;PMS_P2;Temp;Humidity;BMP_temperature;BMP_pressure;BME280_temperature;BME280_humidity;BME280_pressure;Samples;Min_cycle;Max_cycle;Signal;HPM_P1;HPM_P2
2022/10/19 00:01:01;;;;;;;10.23;8.57;;;12.20;99.90;;;;;;5018341;28;20220;-81
2022/10/19 00:03:29;;;;;;;12.27;9.00;;;12.20;99.90;;;;;;5011116;28;20320;-82
2022/10/19 00:05:56;;;;;;;11.03;8.17;;;12.20;99.90;;;;;;5019065;28;20206;-82
2022/10/19 00:08:24;;;;;;;10.27;8.87;;;12.20;99.90;;;;;;5036835;28;20210;-82
2022/10/19 00:10:51;;;;;;;9.97;8.17;;;12.10;99.90;;;;;;5036675;28;20664;-81
2022/10/19 00:13:18;;;;;;;10.37;8.67;;;12.10;99.90;;;;;;5018759;28;20219;-82
2022/10/19 00:15:45;;;;;;;10.80;8.63;;;12.10;99.90;;;;;;5018872;28;20568;-82
2022/10/19 00:18:12;;;;;;;11.77;8.77;;;12.10;99.90;;;;;;5018831;28;20209;-82
2022/10/19 00:20:38;;;;;;;9.20;8.17;;;12.00;99.90;;;;;;5018721;28;20695;-82
2022/10/19 00:23:05;;;;;;;16.20;10.53;;;12.10;99.90;;;;;;5036967;28;20599;-81
2022/10/19 00:25:33;;;;;;;15.87;10.73;;;12.10;99.90;;;;;;5018810;28;20220;-82
2022/10/19 00:28:01;;;;;;;13.37;10.70;;;12.10;99.90;;;;;;5012267;28;20209;-82
2022/10/19 00:30:27;;;;;;;14.77;11.33;;;12.10;99.90;;;;;;5018389;28;20696;-82
2022/10/19 00:32:54;;;;;;;13.97;11.13;;;12.10;99.90;;;;;;5017998;28;20696;-82
2022/10/19 00:35:21;;;;;;;12.50;10.63;;;12.10;99.90;;;;;;5036876;28;20662;-82
2022/10/19 00:37:48;;;;;;;11.10;9.50;;;12.10;99.90;;;;;;5036386;28;20260;-82
2022/10/19 00:40:15;;;;;;;13.00;10.77;;;12.10;99.90;;;;;;5018351;28;20191;-82
2022/10/19 00:42:43;;;;;;;13.30;11.27;;;12.20;99.90;;;;;;5030414;28;20211;-82
2022/10/19 00:45:16;;;;;;;13.30;10.80;;;12.20;99.90;;;;;;5036608;28;20206;-81
2022/10/19 00:47:44;;;;;;;14.63;10.53;;;12.20;99.90;;;;;;5011387;28;20586;-82
2022/10/19 00:50:14;;;;;;;13.13;10.90;;;12.20;99.90;;;;;;5037006;28;20255;-82
2022/10/19 00:52:41;;;;;;;13.63;12.00;;;12.10;99.90;;;;;;5014186;28;20230;-82
2022/10/19 00:55:09;;;;;;;13.20;11.17;;;12.20;99.90;;;;;;5018381;28;20250;-82
2022/10/19 00:57:36;;;;;;;14.07;11.47;;;12.10;99.90;;;;;;5018378;28;20202;-81
2022/10/19 01:00:07;;;;;;;11.67;10.40;;;12.10;99.90;;;;;;5035965;28;20201;-82
2022/10/19 01:02:34;;;;;;;11.37;9.40;;;12.10;99.90;;;;;;5018287;28;20230;-82
2022/10/19 01:05:02;;;;;;;11.17;10.03;;;12.10;99.90;;;;;;5035821;28;20207;-82
2022/10/19 01:07:29;;;;;;;10.33;9.27;;;12.00;99.90;;;;;;5031078;28;20284;-82
2022/10/19 01:09:57;;;;;;;10.17;8.53;;;12.00;99.90;;;;;;5017500;28;20259;-82
2022/10/19 01:12:37;;;;;;;10.30;9.20;;;12.00;99.90;;;;;;5034755;28;20226;-81
2022/10/19 01:15:17;;;;;;;13.13;10.73;;;12.00;99.90;;;;;;5016839;28;20209;-81
2022/10/19 01:17:50;;;;;;;12.07;10.23;;;12.00;99.90;;;;;;5016863;28;20198;-81
2022/10/19 01:20:41;;;;;;;11.57;10.37;;;12.00;99.90;;;;;;5016379;28;20198;-82
2022/10/19 01:23:53;;;;;;;11.53;10.30;;;12.00;99.90;;;;;;5034101;28;20223;-82
2022/10/19 01:26:37;;;;;;;12.97;10.43;;;12.00;99.90;;;;;;4973031;28;20219;-82
2022/10/19 01:29:14;;;;;;;13.30;10.73;;;12.00;99.90;;;;;;4973874;28;20200;-82
2022/10/19 01:31:47;;;;;;;10.37;9.27;;;12.00;99.90;;;;;;5016298;28;20253;-82
2022/10/19 01:34:16;;;;;;;11.57;10.37;;;12.00;99.90;;;;;;5016535;28;20199;-82
2022/10/19 01:36:54;;;;;;;11.57;10.13;;;12.00;99.90;;;;;;5035549;28;20199;-82
2022/10/19 01:39:31;;;;;;;11.07;9.73;;;11.90;99.90;;;;;;5036633;28;20202;-82
2022/10/19 01:42:04;;;;;;;15.43;11.63;;;11.80;99.90;;;;;;5014722;28;20285;-82
2022/10/19 01:44:37;;;;;;;14.23;11.40;;;11.80;99.90;;;;;;5010192;28;20213;-82
2022/10/19 01:47:09;;;;;;;16.00;11.00;;;11.80;99.90;;;;;;5018136;28;20208;-82
2022/10/19 01:49:41;;;;;;;18.13;11.77;;;11.70;99.90;;;;;;5036057;28;20679;-82
2022/10/19 01:52:12;;;;;;;14.37;11.57;;;11.70;99.90;;;;;;5036443;28;20221;-82
2022/10/19 01:54:43;;;;;;;15.03;11.10;;;11.60;99.90;;;;;;5036089;28;20199;-82
2022/10/19 01:57:13;;;;;;;14.93;11.40;;;11.50;99.90;;;;;;5019967;28;20205;-82
2022/10/19 01:59:41;;;;;;;12.73;10.67;;;11.50;99.90;;;;;;5036893;28;20203;-82
2022/10/19 02:02:10;;;;;;;12.40;10.43;;;11.50;99.90;;;;;;5060242;22;20597;-77
2022/10/19 02:04:39;;;;;;;13.00;10.93;;;11.40;99.90;;;;;;5010966;28;20199;-77
2022/10/19 02:07:08;;;;;;;11.90;10.50;;;11.40;99.90;;;;;;5010413;28;20208;-79
2022/10/19 02:09:35;;;;;;;11.93;10.33;;;11.40;99.90;;;;;;5019422;28;20207;-78
2022/10/19 02:12:05;;;;;;;12.63;10.37;;;11.40;99.90;;;;;;5021263;28;20215;-77
2022/10/19 02:14:39;;;;;;;13.73;11.43;;;11.40;99.90;;;;;;5031479;28;20205;-77
2022/10/19 02:17:11;;;;;;;14.80;12.03;;;11.40;99.90;;;;;;5032094;28;20203;-78
2022/10/19 02:19:38;;;;;;;15.60;14.10;;;11.40;99.90;;;;;;5054388;28;20299;-77
2022/10/19 02:22:05;;;;;;;18.50;16.70;;;11.40;99.90;;;;;;5037818;28;20251;-77
2022/10/19 02:24:32;;;;;;;13.43;11.70;;;11.40;99.90;;;;;;5037827;28;20699;-77
2022/10/19 02:27:00;;;;;;;17.97;16.47;;;11.30;99.90;;;;;;5029851;28;20199;-77
2022/10/19 02:29:28;;;;;;;11.80;10.60;;;11.30;99.90;;;;;;5031225;28;20731;-77
2022/10/19 02:31:55;;;;;;;15.00;13.60;;;11.20;99.90;;;;;;5042373;28;20203;-78
2022/10/19 02:34:23;;;;;;;14.93;13.70;;;11.10;99.90;;;;;;5030691;28;20198;-77
2022/10/19 02:36:50;;;;;;;11.47;10.37;;;11.20;99.90;;;;;;5036003;28;20215;-77
2022/10/19 02:39:17;;;;;;;15.50;14.30;;;11.20;99.90;;;;;;5036303;28;20198;-77
2022/10/19 02:41:49;;;;;;;12.97;11.77;;;11.20;99.90;;;;;;5028918;28;20255;-80
2022/10/19 02:44:22;;;;;;;12.47;11.40;;;11.30;99.90;;;;;;5036873;28;20212;-78
2022/10/19 02:46:54;;;;;;;15.97;14.77;;;11.30;99.90;;;;;;5041172;28;20198;-76
2022/10/19 02:49:23;;;;;;;14.30;13.20;;;11.40;99.90;;;;;;5032814;28;20677;-78
2022/10/19 02:51:59;;;;;;;13.77;12.77;;;11.40;99.90;;;;;;5021396;28;20221;-77
2022/10/19 02:54:27;;;;;;;14.07;12.97;;;11.50;99.90;;;;;;5025520;28;20205;-77
2022/10/19 02:56:54;;;;;;;13.73;12.77;;;11.50;99.90;;;;;;5038464;28;20199;-77
2022/10/19 02:59:21;;;;;;;12.47;11.57;;;11.60;99.90;;;;;;5033133;28;20206;-78
2022/10/19 03:01:48;;;;;;;12.87;11.87;;;11.60;99.90;;;;;;5035001;28;20190;-78
2022/10/19 03:04:16;;;;;;;12.17;11.27;;;11.60;99.90;;;;;;5037397;28;20235;-78
2022/10/19 03:06:44;;;;;;;14.67;12.27;;;11.60;99.90;;;;;;5037943;28;20203;-77
2022/10/19 03:09:11;;;;;;;12.00;10.90;;;11.60;99.90;;;;;;5039168;28;20202;-78
2022/10/19 03:11:38;;;;;;;12.53;11.53;;;11.70;99.90;;;;;;5032588;28;20190;-77
2022/10/19 03:14:05;;;;;;;11.43;10.53;;;11.70;99.90;;;;;;5038405;28;20237;-76
2022/10/19 03:16:32;;;;;;;12.13;11.13;;;11.70;99.90;;;;;;5038118;28;20208;-77
2022/10/19 03:18:59;;;;;;;11.00;10.07;;;11.60;99.90;;;;;;5038879;28;20195;-77
2022/10/19 03:21:26;;;;;;;11.60;10.67;;;11.60;99.90;;;;;;5020397;28;20214;-77
2022/10/19 03:23:54;;;;;;;14.47;13.47;;;11.50;99.90;;;;;;5035902;28;20227;-76
2022/10/19 03:26:21;;;;;;;9.17;8.27;;;11.50;99.90;;;;;;5037785;28;20203;-78
2022/10/19 03:28:48;;;;;;;10.00;9.10;;;11.50;99.90;;;;;;5038026;28;20201;-76
2022/10/19 03:31:15;;;;;;;13.93;12.73;;;11.50;99.90;;;;;;5029999;28;20207;-77
2022/10/19 03:33:42;;;;;;;12.77;11.67;;;11.50;99.90;;;;;;5028003;28;20799;-78
2022/10/19 03:36:17;;;;;;;17.03;15.63;;;11.50;99.90;;;;;;5034712;28;20215;-77
2022/10/19 03:38:44;;;;;;;16.73;13.20;;;11.40;99.90;;;;;;5038961;28;20193;-78
2022/10/19 03:41:13;;;;;;;17.17;15.87;;;11.30;99.90;;;;;;5030367;28;20251;-77
2022/10/19 03:43:40;;;;;;;19.20;17.70;;;11.30;99.90;;;;;;5033715;28;20213;-78
2022/10/19 03:46:08;;;;;;;18.87;17.50;;;11.20;99.90;;;;;;5025437;28;20210;-78
2022/10/19 03:48:35;;;;;;;19.43;17.93;;;11.10;99.90;;;;;;5026586;28;20266;-76
2022/10/19 03:51:04;;;;;;;20.60;19.00;;;11.10;99.90;;;;;;5014458;28;20214;-75
2022/10/19 03:53:31;;;;;;;20.67;19.07;;;11.00;99.90;;;;;;5023725;28;20213;-75
2022/10/19 03:56:02;;;;;;;20.63;18.87;;;11.00;99.90;;;;;;5032226;28;20224;-75
2022/10/19 03:58:32;;;;;;;18.13;16.63;;;11.00;99.90;;;;;;5030173;28;20636;-75
2022/10/19 04:00:59;;;;;;;16.50;15.07;;;10.90;99.90;;;;;;5029711;28;20788;-75
2022/10/19 04:03:26;;;;;;;14.57;13.37;;;10.90;99.90;;;;;;5014430;28;20224;-75
2022/10/19 04:05:53;;;;;;;11.37;10.23;;;10.80;99.90;;;;;;5016108;28;20202;-75
2022/10/19 04:08:19;;;;;;;11.07;9.97;;;10.80;99.90;;;;;;5029192;28;20208;-75
2022/10/19 04:10:46;;;;;;;13.93;12.73;;;10.80;99.90;;;;;;5029323;28;20189;-75
2022/10/19 04:13:13;;;;;;;13.93;12.63;;;10.80;99.90;;;;;;5022472;28;20208;-76
2022/10/19 04:15:41;;;;;;;17.53;16.10;;;10.80;99.90;;;;;;5025986;28;20198;-75
2022/10/19 04:18:08;;;;;;;11.17;10.17;;;10.80;99.90;;;;;;5020074;28;20208;-75
2022/10/19 04:20:37;;;;;;;12.07;10.90;;;10.70;99.90;;;;;;5018280;28;20250;-75
2022/10/19 04:23:04;;;;;;;11.63;10.63;;;10.80;99.90;;;;;;5028098;28;20213;-76
2022/10/19 04:25:31;;;;;;;11.00;10.00;;;10.70;99.90;;;;;;5021679;28;20239;-75
2022/10/19 04:27:58;;;;;;;11.30;10.30;;;10.70;99.90;;;;;;5023269;28;20665;-76
2022/10/19 04:30:24;;;;;;;11.70;10.53;;;10.80;99.90;;;;;;5021435;28;20196;-75
2022/10/19 04:32:53;;;;;;;10.97;9.97;;;10.80;99.90;;;;;;5031096;28;20220;-75
2022/10/19 04:35:19;;;;;;;10.57;9.57;;;10.80;99.90;;;;;;5030837;28;20257;-75
2022/10/19 04:37:46;;;;;;;11.07;9.97;;;10.80;99.90;;;;;;5020006;28;20213;-75
2022/10/19 04:40:13;;;;;;;13.20;12.10;;;10.80;99.90;;;;;;5028102;28;20196;-75
2022/10/19 04:42:40;;;;;;;12.20;11.00;;;10.80;99.90;;;;;;5025219;28;20212;-75
2022/10/19 04:45:07;;;;;;;11.90;10.73;;;10.80;99.90;;;;;;5013791;28;20670;-75
2022/10/19 04:47:34;;;;;;;11.60;10.40;;;10.80;99.90;;;;;;5022238;28;20679;-75
2022/10/19 04:50:03;;;;;;;11.00;10.00;;;10.80;99.90;;;;;;5031133;28;20201;-76
2022/10/19 04:52:30;;;;;;;10.57;9.60;;;10.80;99.90;;;;;;5031268;28;20629;-75
2022/10/19 04:54:56;;;;;;;11.90;10.90;;;10.80;99.90;;;;;;5031423;28;20181;-75
2022/10/19 04:57:23;;;;;;;10.40;9.40;;;10.90;99.90;;;;;;5028004;28;20984;-75
2022/10/19 04:59:50;;;;;;;13.33;12.13;;;10.80;99.90;;;;;;5028638;28;20196;-75
2022/10/19 05:02:17;;;;;;;13.00;11.90;;;10.80;99.90;;;;;;5029880;28;20565;-75
2022/10/19 05:04:44;;;;;;;10.30;9.17;;;10.80;99.90;;;;;;5033762;28;20216;-75
2022/10/19 05:07:12;;;;;;;12.50;8.90;;;10.70;99.90;;;;;;5039380;28;20207;-75
2022/10/19 05:09:39;;;;;;;9.73;8.83;;;10.70;99.90;;;;;;5024666;28;20207;-75
2022/10/19 05:12:06;;;;;;;9.17;8.27;;;10.70;99.90;;;;;;5026242;28;20199;-75
2022/10/19 05:14:33;;;;;;;9.97;9.17;;;10.60;99.90;;;;;;5031679;28;20227;-75
2022/10/19 05:17:00;;;;;;;17.87;16.77;;;10.50;99.90;;;;;;5020346;28;20589;-75
2022/10/19 05:19:27;;;;;;;19.30;18.07;;;10.40;99.90;;;;;;5021793;28;20653;-75
2022/10/19 05:21:54;;;;;;;21.57;20.27;;;10.40;99.90;;;;;;5022350;28;20250;-75
2022/10/19 05:24:22;;;;;;;21.80;20.50;;;10.40;99.90;;;;;;5029922;28;20184;-75
2022/10/19 05:26:49;;;;;;;19.33;17.93;;;10.40;99.90;;;;;;5030891;28;20744;-75
2022/10/19 05:29:16;;;;;;;18.90;17.60;;;10.40;99.90;;;;;;5030766;28;20201;-75
2022/10/19 05:31:43;;;;;;;21.00;19.27;;;10.50;99.90;;;;;;5039937;28;20211;-75
2022/10/19 05:34:10;;;;;;;20.20;18.67;;;10.50;99.90;;;;;;5018762;28;20223;-75
2022/10/19 05:36:38;;;;;;;18.53;17.23;;;10.50;99.90;;;;;;5028462;28;20265;-75
2022/10/19 05:39:07;;;;;;;20.07;18.67;;;10.50;99.90;;;;;;5020969;28;20197;-75
2022/10/19 05:41:35;;;;;;;18.97;17.67;;;10.50;99.90;;;;;;5018658;28;20189;-77
2022/10/19 05:44:03;;;;;;;19.90;18.50;;;10.40;99.90;;;;;;5020034;28;20257;-77
2022/10/19 05:46:31;;;;;;;19.50;18.20;;;10.40;99.90;;;;;;5022117;28;20196;-77
2022/10/19 05:48:59;;;;;;;19.83;18.43;;;10.50;99.90;;;;;;5025238;28;20196;-77
2022/10/19 05:51:27;;;;;;;19.40;18.10;;;10.50;99.90;;;;;;5016205;28;20223;-75
2022/10/19 05:53:55;;;;;;;19.87;18.50;;;10.60;99.90;;;;;;5014649;28;20222;-75
2022/10/19 05:56:24;;;;;;;19.93;18.63;;;10.70;99.90;;;;;;5021789;28;20581;-75
2022/10/19 05:58:53;;;;;;;18.87;17.57;;;10.70;99.90;;;;;;5030441;28;20245;-75
2022/10/19 06:01:20;;;;;;;20.40;18.80;;;10.80;99.90;;;;;;5021272;28;20257;-75
2022/10/19 06:03:47;;;;;;;19.70;18.40;;;10.80;99.90;;;;;;5030448;28;20219;-75
2022/10/19 06:06:14;;;;;;;19.20;17.90;;;10.80;99.90;;;;;;5019179;28;20656;-76
2022/10/19 06:08:41;;;;;;;18.63;17.33;;;10.90;99.90;;;;;;5024364;28;20200;-76
2022/10/19 06:11:10;;;;;;;18.70;17.40;;;11.00;99.90;;;;;;5020784;28;20257;-75
2022/10/19 06:13:37;;;;;;;19.13;17.73;;;11.10;99.90;;;;;;5021916;28;20213;-75
2022/10/19 06:16:07;;;;;;;18.57;17.30;;;11.10;99.90;;;;;;5029761;28;20664;-75
2022/10/19 06:18:34;;;;;;;18.37;17.17;;;11.20;99.90;;;;;;5049098;28;20267;-75
2022/10/19 06:21:02;;;;;;;17.90;16.73;;;11.30;99.90;;;;;;5023190;28;20587;-75
2022/10/19 06:23:29;;;;;;;18.87;17.63;;;11.30;99.90;;;;;;5012750;28;20220;-75
2022/10/19 06:25:56;;;;;;;17.77;16.57;;;11.40;99.90;;;;;;5030975;28;20315;-75
2022/10/19 06:28:23;;;;;;;17.73;16.43;;;11.40;99.90;;;;;;5029702;28;20215;-76
2022/10/19 06:30:50;;;;;;;8.37;7.57;;;11.50;99.90;;;;;;5020775;28;20224;-75
2022/10/19 06:33:18;;;;;;;8.03;7.23;;;11.60;99.90;;;;;;5026006;28;20217;-75
2022/10/19 06:35:45;;;;;;;9.10;8.13;;;11.60;99.90;;;;;;5030045;28;20623;-75
2022/10/19 06:38:12;;;;;;;8.53;7.63;;;11.60;99.90;;;;;;5030378;28;20201;-75
2022/10/19 06:40:39;;;;;;;8.53;7.63;;;11.60;99.90;;;;;;5031796;28;20275;-75
2022/10/19 06:43:06;;;;;;;8.87;7.97;;;11.70;99.90;;;;;;5033030;28;20217;-75
2022/10/19 06:45:33;;;;;;;7.83;7.13;;;11.70;99.90;;;;;;5024530;28;20211;-77
2022/10/19 06:48:00;;;;;;;7.67;6.87;;;11.80;99.90;;;;;;5039910;28;20278;-78
2022/10/19 06:50:30;;;;;;;7.93;7.07;;;11.90;99.90;;;;;;5031583;28;20206;-77
2022/10/19 06:52:58;;;;;;;9.10;7.10;;;12.10;99.90;;;;;;5032441;28;20230;-76
2022/10/19 06:55:25;;;;;;;7.57;6.80;;;12.10;99.90;;;;;;5032446;28;20218;-76
2022/10/19 06:57:52;;;;;;;8.27;7.47;;;12.20;99.90;;;;;;5032047;28;20198;-76
2022/10/19 07:00:19;;;;;;;8.20;7.40;;;12.40;99.90;;;;;;5031793;28;20202;-76
2022/10/19 07:02:46;;;;;;;7.20;6.50;;;12.50;99.90;;;;;;5031628;28;20245;-75
2022/10/19 07:05:12;;;;;;;7.33;6.63;;;12.60;99.90;;;;;;5031749;28;20203;-76
2022/10/19 07:07:41;;;;;;;7.77;7.07;;;12.70;99.90;;;;;;5031229;28;20217;-76
2022/10/19 07:10:08;;;;;;;13.37;12.47;;;12.80;99.90;;;;;;5028091;28;20195;-76
2022/10/19 07:12:35;;;;;;;12.90;12.00;;;12.80;99.90;;;;;;5030811;28;20712;-76
2022/10/19 07:15:02;;;;;;;15.40;14.30;;;12.80;99.90;;;;;;5031230;28;20289;-76
2022/10/19 07:17:29;;;;;;;13.83;12.93;;;12.90;99.90;;;;;;5030878;28;20206;-76
2022/10/19 07:19:56;;;;;;;13.20;12.20;;;12.90;99.90;;;;;;5025697;28;20207;-77
2022/10/19 07:22:23;;;;;;;13.90;12.90;;;12.90;99.90;;;;;;5037207;28;20576;-78
2022/10/19 07:24:51;;;;;;;15.07;13.97;;;13.00;99.90;;;;;;5031719;28;20192;-76
2022/10/19 07:27:18;;;;;;;15.70;14.80;;;13.00;99.90;;;;;;5031056;28;20196;-76
2022/10/19 07:29:45;;;;;;;17.53;16.43;;;13.00;99.90;;;;;;5015494;28;20196;-76
2022/10/19 07:32:12;;;;;;;13.97;12.97;;;13.00;99.90;;;;;;5018469;28;20221;-76
2022/10/19 07:34:39;;;;;;;13.73;12.77;;;13.00;99.90;;;;;;5017429;28;20218;-76
2022/10/19 07:37:06;;;;;;;12.83;11.90;;;13.10;99.90;;;;;;5022601;28;20203;-76
2022/10/19 07:39:33;;;;;;;12.33;11.43;;;13.30;99.90;;;;;;5030530;28;20234;-76
2022/10/19 07:42:01;;;;;;;12.97;12.07;;;13.30;99.90;;;;;;5026933;28;20214;-76
2022/10/19 07:44:28;;;;;;;12.47;11.63;;;13.40;99.90;;;;;;5019943;28;20193;-76
2022/10/19 07:46:54;;;;;;;6.67;5.93;;;13.40;99.90;;;;;;5031029;28;20200;-76
2022/10/19 07:49:21;;;;;;;6.60;6.00;;;13.40;99.90;;;;;;5018741;28;20204;-76
2022/10/19 07:51:52;;;;;;;6.63;6.03;;;13.50;99.90;;;;;;5025549;28;20206;-76
2022/10/19 07:54:19;;;;;;;6.20;5.70;;;13.60;99.90;;;;;;5034253;28;20263;-79
2022/10/19 07:56:46;;;;;;;6.50;5.90;;;13.60;99.90;;;;;;5027773;28;20288;-76
2022/10/19 07:59:16;;;;;;;7.60;6.73;;;13.60;99.90;;;;;;5017388;28;20216;-79
2022/10/19 08:01:43;;;;;;;6.80;6.10;;;13.60;99.90;;;;;;5022705;28;20197;-76
2022/10/19 08:04:10;;;;;;;6.90;6.30;;;13.70;99.90;;;;;;5029407;28;20228;-76
2022/10/19 08:06:37;;;;;;;6.87;6.17;;;13.70;99.90;;;;;;5021760;28;20220;-76
2022/10/19 08:09:04;;;;;;;7.30;6.60;;;13.80;99.90;;;;;;5023913;22;20230;-80
2022/10/19 08:11:33;;;;;;;17.50;16.03;;;13.90;99.90;;;;;;4981827;28;20202;-80
2022/10/19 08:14:02;;;;;;;7.40;6.50;;;13.90;99.90;;;;;;4995882;28;20232;-80
2022/10/19 08:16:32;;;;;;;6.63;6.03;;;13.90;99.90;;;;;;4995685;28;20205;-80
2022/10/19 08:19:01;;;;;;;6.53;5.90;;;14.10;99.90;;;;;;4993995;28;20229;-80
2022/10/19 08:21:29;;;;;;;6.87;6.27;;;14.20;99.90;;;;;;4994042;28;20207;-80
2022/10/19 08:23:57;;;;;;;7.43;6.63;;;14.30;99.90;;;;;;4994014;28;20272;-80
2022/10/19 08:26:24;;;;;;;7.50;6.70;;;14.50;99.90;;;;;;4996222;28;20183;-80
2022/10/19 08:28:51;;;;;;;7.10;6.40;;;14.50;99.90;;;;;;4995902;28;20224;-80
2022/10/19 08:31:20;;;;;;;7.60;6.00;;;14.50;99.90;;;;;;4996299;28;20204;-80
2022/10/19 08:33:50;;;;;;;6.53;5.90;;;14.50;99.90;;;;;;4994260;28;20229;-80
2022/10/19 08:36:18;;;;;;;8.93;6.47;;;14.50;99.90;;;;;;4995322;28;20673;-80
2022/10/19 08:38:47;;;;;;;6.67;5.90;;;14.60;99.90;;;;;;4995757;28;20217;-80
2022/10/19 08:41:30;;;;;;;7.07;6.37;;;14.70;99.90;;;;;;4996631;28;20199;-81
2022/10/19 08:44:26;;;;;;;8.33;6.63;;;14.80;99.90;;;;;;5003727;28;20206;-80
2022/10/19 08:47:02;;;;;;;14.03;12.93;;;14.90;99.90;;;;;;5001004;28;20207;-80
2022/10/19 08:49:32;;;;;;;14.37;13.37;;;14.80;99.90;;;;;;4996690;28;20218;-80
2022/10/19 08:52:03;;;;;;;14.17;13.07;;;15.00;99.90;;;;;;5000194;28;20669;-80
2022/10/19 08:54:39;;;;;;;12.83;11.83;;;15.10;99.90;;;;;;4993430;28;20209;-80
2022/10/19 08:57:13;;;;;;;14.97;13.77;;;15.20;99.90;;;;;;4997303;28;20252;-81
2022/10/19 08:59:48;;;;;;;14.27;13.27;;;15.20;99.90;;;;;;5001724;28;20203;-81
2022/10/19 09:02:21;;;;;;;14.20;13.20;;;15.30;99.90;;;;;;5003781;28;20204;-82
2022/10/19 09:04:55;;;;;;;18.53;17.23;;;15.50;99.90;;;;;;5000242;28;20199;-81
2022/10/19 09:07:26;;;;;;;15.00;13.90;;;15.50;99.90;;;;;;5000032;28;20216;-81
2022/10/19 09:09:57;;;;;;;15.03;13.93;;;15.60;99.90;;;;;;5002637;28;20199;-82
2022/10/19 09:12:37;;;;;;;15.53;14.33;;;15.80;99.90;;;;;;5005799;28;20197;-81
2022/10/19 09:15:07;;;;;;;14.97;13.83;;;16.00;99.90;;;;;;5002570;28;20225;-81
2022/10/19 09:17:35;;;;;;;15.43;14.30;;;16.10;99.90;;;;;;5001585;28;20221;-80
2022/10/19 09:20:15;;;;;;;9.67;8.53;;;16.20;99.90;;;;;;5004373;28;20723;-81
2022/10/19 09:22:43;;;;;;;13.13;12.03;;;16.20;99.90;;;;;;5004403;28;20579;-80
2022/10/19 09:25:15;;;;;;;8.93;7.60;;;16.10;99.90;;;;;;5004044;28;20264;-81
2022/10/19 09:27:45;;;;;;;13.53;12.50;;;16.10;99.90;;;;;;5001557;28;20292;-81
2022/10/19 09:30:17;;;;;;;9.47;8.57;;;16.20;99.90;;;;;;4999961;28;20205;-80
2022/10/19 09:32:44;;;;;;;7.73;6.13;;;16.30;99.90;;;;;;4988669;28;20233;-80
2022/10/19 09:35:24;;;;;;;7.20;6.30;;;16.40;99.90;;;;;;4976309;28;20268;-80
2022/10/19 09:37:51;;;;;;;8.63;6.80;;;16.40;99.90;;;;;;4978580;28;20209;-80
2022/10/19 09:40:22;;;;;;;8.27;6.30;;;16.40;99.90;;;;;;4989272;28;20189;-80
2022/10/19 09:42:55;;;;;;;14.60;13.50;;;16.40;99.90;;;;;;4987906;28;20224;-81
2022/10/19 09:45:32;;;;;;;13.00;12.10;;;16.40;99.90;;;;;;4989012;28;20751;-80
2022/10/19 09:48:02;;;;;;;11.80;10.90;;;16.40;99.90;;;;;;4980879;28;20288;-80
2022/10/19 09:50:31;;;;;;;14.87;13.87;;;16.50;99.90;;;;;;4964856;28;20280;-81
2022/10/19 09:53:02;;;;;;;13.47;12.33;;;16.60;99.90;;;;;;4978337;28;20198;-80
2022/10/19 09:55:36;;;;;;;8.03;7.17;;;16.70;99.90;;;;;;4971429;28;20231;-78
2022/10/19 09:58:08;;;;;;;7.07;5.87;;;16.70;99.90;;;;;;4978954;28;20715;-78
2022/10/19 10:00:38;;;;;;;13.50;12.40;;;16.80;99.90;;;;;;4986309;28;20197;-79
2022/10/19 10:03:07;;;;;;;7.97;6.37;;;17.00;99.90;;;;;;4984873;28;20201;-78
2022/10/19 10:05:37;;;;;;;8.17;6.43;;;17.20;99.90;;;;;;4970931;28;20720;-80
2022/10/19 10:08:12;;;;;;;14.70;13.40;;;17.40;99.90;;;;;;4992714;28;20266;-80
2022/10/19 10:10:44;;;;;;;8.60;7.23;;;17.70;99.90;;;;;;4980833;28;20197;-80
2022/10/19 10:13:16;;;;;;;13.90;12.53;;;17.90;99.90;;;;;;4975001;28;20202;-80
2022/10/19 10:15:47;;;;;;;9.30;6.87;;;18.00;99.90;;;;;;4984965;28;20630;-81
2022/10/19 10:18:16;;;;;;;9.97;7.73;;;18.10;99.90;;;;;;4989339;28;20245;-81
2022/10/19 10:21:01;;;;;;;8.60;6.40;;;18.30;99.90;;;;;;4986736;28;20196;-80
2022/10/19 10:23:31;;;;;;;12.57;11.57;;;18.20;99.90;;;;;;4980341;28;20207;-80
2022/10/19 10:25:59;;;;;;;12.87;11.77;;;18.20;99.90;;;;;;4977217;28;20212;-81
2022/10/19 10:28:27;;;;;;;10.47;7.23;;;18.20;99.90;;;;;;4999857;28;20260;-81
2022/10/19 10:31:01;;;;;;;7.33;5.67;;;18.10;99.90;;;;;;4984532;28;20196;-78
2022/10/19 10:33:29;;;;;;;12.70;11.67;;;18.10;99.90;;;;;;4972544;28;20221;-78
2022/10/19 10:36:04;;;;;;;12.70;11.83;;;17.90;99.90;;;;;;4982513;28;20221;-78
2022/10/19 10:38:35;;;;;;;6.57;5.87;;;17.80;99.90;;;;;;4977229;28;20724;-79
2022/10/19 10:41:06;;;;;;;5.87;4.80;;;17.90;99.90;;;;;;4984515;28;20199;-78
2022/10/19 10:43:35;;;;;;;7.43;5.20;;;17.90;99.90;;;;;;4977451;28;20616;-78
2022/10/19 10:46:06;;;;;;;6.40;4.77;;;18.00;99.90;;;;;;4974811;28;20266;-79
2022/10/19 10:48:37;;;;;;;5.03;4.30;;;17.90;99.90;;;;;;4980456;28;20228;-79
2022/10/19 10:51:18;;;;;;;5.57;4.57;;;17.80;99.90;;;;;;4987598;28;20701;-79
2022/10/19 10:53:45;;;;;;;6.23;5.33;;;17.80;99.90;;;;;;4990900;28;20752;-79
2022/10/19 10:56:25;;;;;;;8.30;6.07;;;17.90;99.90;;;;;;4994492;28;20223;-78
2022/10/19 10:58:58;;;;;;;10.70;9.90;;;17.80;99.90;;;;;;4995203;28;20225;-79
2022/10/19 11:01:29;;;;;;;9.87;9.07;;;17.80;99.90;;;;;;4995386;28;20263;-79
2022/10/19 11:04:03;;;;;;;11.63;10.83;;;17.80;99.90;;;;;;4999770;28;20204;-79
2022/10/19 11:06:34;;;;;;;11.90;11.10;;;18.10;99.90;;;;;;4995782;28;20202;-79
2022/10/19 11:09:10;;;;;;;13.50;12.60;;;18.30;99.90;;;;;;4996523;28;20255;-79
2022/10/19 11:11:40;;;;;;;10.17;9.33;;;18.50;99.90;;;;;;4986306;28;20231;-78
2022/10/19 11:14:24;;;;;;;5.87;4.57;;;18.60;99.90;;;;;;4980441;28;20258;-79
2022/10/19 11:16:54;;;;;;;11.93;11.03;;;18.80;99.90;;;;;;4979305;28;20204;-78
2022/10/19 11:19:24;;;;;;;8.10;7.50;;;18.90;99.90;;;;;;4975352;28;20346;-78
2022/10/19 11:21:59;;;;;;;13.30;12.50;;;18.90;99.90;;;;;;4982004;28;20288;-78
2022/10/19 11:24:40;;;;;;;7.50;6.33;;;18.70;99.90;;;;;;4991771;28;20234;-79
2022/10/19 11:27:18;;;;;;;8.43;5.13;;;18.60;99.90;;;;;;4991966;28;20227;-79
2022/10/19 11:30:18;;;;;;;5.83;5.33;;;18.40;99.90;;;;;;4989556;28;20197;-79
2022/10/19 11:32:57;;;;;;;6.37;5.57;;;18.20;99.90;;;;;;4984448;28;20205;-79
2022/10/19 11:35:45;;;;;;;7.50;5.13;;;18.00;99.90;;;;;;4993600;28;20238;-79
2022/10/19 11:38:33;;;;;;;5.53;5.03;;;17.90;99.90;;;;;;4997353;28;20238;-78
2022/10/19 11:41:11;;;;;;;6.70;5.07;;;17.90;99.90;;;;;;4976514;28;20205;-79
2022/10/19 11:43:45;;;;;;;5.80;4.53;;;17.90;99.90;;;;;;4997602;28;20204;-78
2022/10/19 11:46:21;;;;;;;7.93;5.30;;;18.00;99.90;;;;;;4993158;28;20202;-79
2022/10/19 11:49:12;;;;;;;7.23;5.40;;;18.00;99.90;;;;;;4982435;28;20214;-78
2022/10/19 11:51:48;;;;;;;5.63;4.73;;;17.90;99.90;;;;;;4980217;28;20203;-78
2022/10/19 11:54:42;;;;;;;10.87;10.00;;;17.90;99.90;;;;;;4977642;28;20296;-78
2022/10/19 11:57:15;;;;;;;11.63;10.83;;;17.90;99.90;;;;;;4985154;28;20200;-79
2022/10/19 11:59:55;;;;;;;10.43;9.63;;;18.10;99.90;;;;;;4977935;28;20234;-79
2022/10/19 12:02:51;;;;;;;12.67;11.67;;;18.20;99.90;;;;;;4980173;28;20216;-78
2022/10/19 12:05:25;;;;;;;6.13;5.30;;;18.20;99.90;;;;;;4977474;28;20216;-78
2022/10/19 12:08:06;;;;;;;6.20;5.27;;;18.20;99.90;;;;;;4983296;28;20226;-78
2022/10/19 12:10:52;;;;;;;6.47;5.10;;;18.30;99.90;;;;;;4974765;28;20246;-81
2022/10/19 12:13:23;;;;;;;5.27;4.30;;;18.40;99.90;;;;;;4997873;28;20257;-81
2022/10/19 12:15:52;;;;;;;5.57;4.70;;;18.60;99.90;;;;;;4998177;28;20232;-81
2022/10/19 12:18:34;;;;;;;6.53;5.67;;;18.70;99.90;;;;;;4996749;28;20223;-81
2022/10/19 12:21:04;;;;;;;12.70;11.63;;;18.60;99.90;;;;;;4998457;28;20213;-81
2022/10/19 12:23:35;;;;;;;10.50;9.67;;;18.60;99.90;;;;;;4979915;28;20205;-81
2022/10/19 12:26:06;;;;;;;9.20;8.30;;;18.50;99.90;;;;;;4981050;28;20209;-81
2022/10/19 12:28:36;;;;;;;5.93;5.13;;;18.50;99.90;;;;;;4973740;28;20217;-81
2022/10/19 12:31:05;;;;;;;6.67;5.97;;;18.50;99.90;;;;;;4984684;28;20205;-81
2022/10/19 12:33:46;;;;;;;7.17;6.40;;;18.50;99.90;;;;;;4977958;28;20209;-81
2022/10/19 12:36:27;;;;;;;6.50;5.87;;;18.60;99.90;;;;;;4982376;28;20223;-81
2022/10/19 12:39:01;;;;;;;11.63;10.83;;;18.80;99.90;;;;;;4972654;28;20730;-80
2022/10/19 12:41:36;;;;;;;12.63;11.63;;;19.20;99.90;;;;;;4975369;28;20221;-81
2022/10/19 12:44:24;;;;;;;5.00;4.50;;;19.40;99.90;;;;;;4976029;28;20202;-81
2022/10/19 12:46:54;;;;;;;9.03;8.33;;;19.40;99.90;;;;;;4983728;28;20205;-81
2022/10/19 12:49:44;;;;;;;10.07;9.37;;;19.50;99.90;;;;;;4989222;28;20229;-81